createdAt,value
2022-11-17T00:00:14.183Z,46.5
2022-11-17T00:05:44.742Z,47
2022-11-17T00:11:15.314Z,47
2022-11-17T00:16:45.772Z,46.5
2022-11-17T00:22:16.350Z,47
2022-11-17T00:27:46.973Z,47
2022-11-17T00:33:17.301Z,47
2022-11-17T00:38:48.055Z,46.5
2022-11-17T00:44:18.638Z,47
2022-11-17T00:49:48.996Z,46.5
2022-11-17T00:55:18.533Z,46.5
2022-11-17T01:00:49.080Z,46.5
2022-11-17T01:06:19.434Z,46.5
2022-11-17T01:11:48.932Z,46
2022-11-17T01:17:19.464Z,46.5
2022-11-17T01:22:49.893Z,46
2022-11-17T01:28:20.506Z,46
2022-11-17T01:33:51.206Z,46
2022-11-17T01:39:20.589Z,46
2022-11-17T01:44:51.054Z,46
2022-11-17T01:50:21.694Z,46
2022-11-17T01:55:52.131Z,46
2022-11-17T02:01:22.751Z,46
2022-11-17T02:06:53.383Z,46
2022-11-17T02:12:23.691Z,46
2022-11-17T02:17:53.279Z,46
2022-11-17T02:24:29.857Z,46
2022-11-17T02:30:00.307Z,46
2022-11-17T02:35:30.906Z,46
2022-11-17T02:41:01.531Z,46
2022-11-17T02:46:31.968Z,46.5
2022-11-17T02:52:02.476Z,46.5
2022-11-17T02:57:33.084Z,46.5
2022-11-17T03:03:03.656Z,46.5
2022-11-17T03:08:34.132Z,46.5
2022-11-17T03:14:04.602Z,46.5
2022-11-17T03:19:34.099Z,46.5
2022-11-17T03:25:04.545Z,46.5
2022-11-17T03:30:37.498Z,46.5
2022-11-17T03:36:04.529Z,46.5
2022-11-17T03:41:35.014Z,46.5
2022-11-17T03:47:05.595Z,46.5
2022-11-17T03:52:36.090Z,46.5
2022-11-17T03:58:06.571Z,47
2022-11-17T04:03:37.402Z,46.5
2022-11-17T04:09:07.658Z,46.5
2022-11-17T04:14:38.120Z,46.5
2022-11-17T04:20:07.730Z,46.5
2022-11-17T04:25:38.116Z,46.5
2022-11-17T04:31:08.574Z,46.5
2022-11-17T04:36:38.177Z,46.5
2022-11-17T04:42:08.540Z,46.5
2022-11-17T04:47:38.035Z,46.5
2022-11-17T04:53:08.664Z,47
2022-11-17T04:58:38.979Z,47
2022-11-17T05:04:08.465Z,47
2022-11-17T05:09:39.078Z,47
2022-11-17T05:15:09.408Z,47
2022-11-17T05:20:40.024Z,47
2022-11-17T05:26:10.606Z,47
2022-11-17T05:31:40.006Z,47
2022-11-17T05:37:10.466Z,46.5
2022-11-17T05:42:41.069Z,47
2022-11-17T05:48:11.542Z,47
2022-11-17T05:53:42.006Z,47
2022-11-17T05:59:11.647Z,46.5
2022-11-17T06:04:42.155Z,46.5
2022-11-17T06:10:12.459Z,46.5
2022-11-17T06:15:43.065Z,46.5
2022-11-17T06:21:14.016Z,46.5
2022-11-17T06:26:44.052Z,46.5
2022-11-17T06:32:14.760Z,46.5
2022-11-17T06:37:45.128Z,46
2022-11-17T06:43:15.626Z,46.5
2022-11-17T06:48:46.346Z,46
2022-11-17T06:54:16.820Z,46
2022-11-17T06:59:47.411Z,46
2022-11-17T07:05:18.130Z,46
2022-11-17T07:10:49.533Z,46
2022-11-17T07:16:23.255Z,46
2022-11-17T07:21:48.354Z,46
2022-11-17T07:27:18.793Z,46
2022-11-17T07:32:53.400Z,46.5
2022-11-17T07:38:18.893Z,45.5
2022-11-17T07:43:49.234Z,46
2022-11-17T07:49:19.878Z,46
2022-11-17T07:54:50.482Z,46
2022-11-17T08:00:19.872Z,46
2022-11-17T08:05:50.350Z,46
2022-11-17T08:11:20.924Z,46
2022-11-17T08:16:51.395Z,46
2022-11-17T08:22:21.881Z,46
2022-11-17T08:27:52.483Z,46
2022-11-17T08:33:21.842Z,46
2022-11-17T08:38:52.301Z,46
2022-11-17T08:44:22.824Z,46
2022-11-17T08:49:52.409Z,46
2022-11-17T08:55:22.819Z,45.5
2022-11-17T09:00:52.377Z,46
2022-11-17T09:06:22.731Z,45.5
2022-11-17T09:11:53.327Z,45.5
2022-11-17T09:17:23.923Z,46
2022-11-17T09:22:54.298Z,45.5
2022-11-17T09:28:24.892Z,45.5
2022-11-17T09:33:59.317Z,45.5
2022-11-17T09:39:25.830Z,45.5
2022-11-17T09:44:55.317Z,45.5
2022-11-17T09:50:25.836Z,45.5
2022-11-17T09:55:56.303Z,45.5
2022-11-17T10:01:26.991Z,45.5
2022-11-17T10:06:57.612Z,45.5
2022-11-17T10:12:27.951Z,45.5
2022-11-17T10:17:58.556Z,45.5
2022-11-17T10:23:29.060Z,45
2022-11-17T10:29:02.781Z,45
2022-11-17T10:34:34.141Z,45
2022-11-17T10:40:00.597Z,45.5
2022-11-17T10:45:30.064Z,45
2022-11-17T10:51:00.523Z,45
2022-11-17T10:56:31.023Z,45
2022-11-17T11:02:00.535Z,45
2022-11-17T11:07:31.072Z,45
2022-11-17T11:13:01.549Z,45
2022-11-17T11:18:32.108Z,45
2022-11-17T11:24:02.584Z,45
2022-11-17T11:29:33.132Z,45
2022-11-17T11:35:03.682Z,45
2022-11-17T11:40:34.149Z,45
2022-11-17T11:46:04.617Z,45
2022-11-17T11:51:35.200Z,45
2022-11-17T11:57:05.792Z,45
2022-11-17T12:02:36.515Z,44.5
2022-11-17T12:08:10.657Z,45
2022-11-17T12:13:41.786Z,44.5
2022-11-17T12:19:07.963Z,45
2022-11-17T12:24:38.537Z,45
2022-11-17T12:30:09.046Z,45
2022-11-17T12:35:39.619Z,45
2022-11-17T12:41:10.083Z,45
2022-11-17T12:46:40.562Z,44.5
2022-11-17T12:52:10.093Z,44.5
2022-11-17T12:57:40.644Z,44.5
2022-11-17T13:03:11.103Z,45
2022-11-17T13:08:41.966Z,45
2022-11-17T13:14:12.873Z,44.5
2022-11-17T13:19:42.786Z,44.5
2022-11-17T13:25:12.362Z,44.5
2022-11-17T13:30:42.864Z,44
2022-11-17T13:36:13.241Z,44
2022-11-17T13:41:42.752Z,44
2022-11-17T13:47:16.507Z,44
2022-11-17T13:52:46.917Z,43.5
2022-11-17T13:58:19.952Z,43.5
2022-11-17T14:03:43.647Z,43.5
2022-11-17T14:09:13.131Z,43.5
2022-11-17T14:14:43.631Z,43.5
2022-11-17T14:20:14.187Z,43.5
2022-11-17T14:25:43.585Z,43
2022-11-17T14:31:14.066Z,43.5
2022-11-17T14:36:44.553Z,43.5
2022-11-17T14:42:14.008Z,44
2022-11-17T14:47:44.524Z,44
2022-11-17T14:53:15.101Z,44
2022-11-17T14:58:45.564Z,44
2022-11-17T15:04:48.447Z,44
2022-11-17T15:10:52.753Z,44
2022-11-17T15:16:23.241Z,44.5
2022-11-17T15:21:52.760Z,44.5
2022-11-17T15:27:23.162Z,44.5
2022-11-17T15:32:53.646Z,44.5
2022-11-17T15:38:23.132Z,45
2022-11-17T15:43:53.588Z,44.5
2022-11-17T15:49:24.084Z,44.5
2022-11-17T15:54:54.690Z,44.5
2022-11-17T16:00:25.162Z,44.5
2022-11-17T16:05:55.657Z,44.5
2022-11-17T16:11:26.193Z,44.5
2022-11-17T16:16:55.636Z,44
2022-11-17T16:22:26.138Z,44
2022-11-17T16:27:55.618Z,45
2022-11-17T16:33:26.088Z,44.5
2022-11-17T16:39:01.211Z,44
2022-11-17T16:44:27.223Z,44.5
2022-11-17T16:49:57.716Z,44
2022-11-17T16:55:28.238Z,43.5
2022-11-17T17:00:58.791Z,44.5
2022-11-17T17:06:29.308Z,44.5
2022-11-17T17:11:59.794Z,44
2022-11-17T17:17:30.277Z,44
2022-11-17T17:23:03.182Z,44
2022-11-17T17:28:31.321Z,44
2022-11-17T17:34:01.829Z,43.5
2022-11-17T17:39:32.398Z,44.5
2022-11-17T17:45:02.848Z,43.5
2022-11-17T17:50:32.385Z,44
2022-11-17T17:56:02.811Z,44
2022-11-17T18:01:33.288Z,43.5
2022-11-17T18:07:02.934Z,44
2022-11-17T18:12:33.266Z,44
2022-11-17T18:18:03.739Z,45
2022-11-17T18:23:33.273Z,44
2022-11-17T18:29:03.729Z,44
2022-11-17T18:34:34.206Z,44
2022-11-17T18:40:03.712Z,44
2022-11-17T18:45:34.193Z,44
2022-11-17T18:51:19.251Z,44
2022-11-17T18:56:35.276Z,44
2022-11-17T19:02:05.824Z,44.5
2022-11-17T19:07:36.382Z,44.5
2022-11-17T19:13:06.946Z,44.5
2022-11-17T19:18:37.379Z,44.5
2022-11-17T19:24:07.891Z,44.5
2022-11-17T19:29:38.569Z,44.5
2022-11-17T19:35:15.780Z,44.5
2022-11-17T19:40:39.519Z,45
2022-11-17T19:46:10.134Z,45
2022-11-17T19:51:40.552Z,45.5
2022-11-17T19:57:11.152Z,45
2022-11-17T20:02:41.657Z,44.5
2022-11-17T20:08:12.115Z,44.5
2022-11-17T20:13:41.615Z,45
2022-11-17T20:19:12.114Z,45
2022-11-17T20:24:41.718Z,45
2022-11-17T20:30:15.173Z,45
2022-11-17T20:35:41.696Z,45
2022-11-17T20:41:12.143Z,45
2022-11-17T20:46:42.624Z,45
2022-11-17T20:52:13.605Z,45
2022-11-17T20:57:43.700Z,45
2022-11-17T21:03:14.185Z,45
2022-11-17T21:08:44.848Z,45
2022-11-17T21:14:15.327Z,45
2022-11-17T21:19:45.694Z,45
2022-11-17T21:25:15.259Z,45
2022-11-17T21:30:45.725Z,45
2022-11-17T21:36:15.191Z,45
2022-11-17T21:41:45.699Z,45.5
2022-11-17T21:47:16.163Z,45
2022-11-17T21:52:46.624Z,45
2022-11-17T21:58:17.256Z,45
2022-11-17T22:03:47.696Z,45
2022-11-17T22:09:17.397Z,45.5
2022-11-17T22:14:47.707Z,45.5
2022-11-17T22:20:18.164Z,45.5
2022-11-17T22:25:48.747Z,45.5
2022-11-17T22:31:19.259Z,45.5
2022-11-17T22:36:49.704Z,45
2022-11-17T22:42:19.188Z,46
2022-11-17T22:47:49.688Z,45.5
2022-11-17T22:53:20.134Z,45
2022-11-17T22:59:56.835Z,45
2022-11-17T23:05:27.326Z,45
2022-11-17T23:11:21.765Z,45.5
2022-11-17T23:16:28.371Z,45
2022-11-17T23:21:58.873Z,45.5
2022-11-17T23:27:28.326Z,45.5
2022-11-17T23:32:58.825Z,45.5
2022-11-17T23:38:29.417Z,46
2022-11-17T23:43:58.771Z,45
2022-11-17T23:49:29.252Z,45
2022-11-17T23:54:59.762Z,45
